Time;durP1;ratioP1;P1;durP2;ratioP2;P2;SDS_P1;SDS_P2;PMS_P1;PMS_P2;Temp;Humidity;BMP_temperature;BMP_pressure;BME280_temperature;BME280_humidity;BME280_pressure;Samples;Min_cycle;Max_cycle;Signal;HPM_P1;HPM_P2
2022/09/23 00:02:01;;;;;;;7.28;4.97;;;;;;;7.23;78.00;96603.00;4994553;28;20050;-76
2022/09/23 00:04:28;;;;;;;9.20;5.60;;;;;;;7.20;77.80;96595.44;4994397;28;20050;-75
2022/09/23 00:06:58;;;;;;;7.75;5.53;;;;;;;7.19;77.81;96597.34;4994127;28;20078;-75
2022/09/23 00:09:24;;;;;;;7.53;4.95;;;;;;;7.16;77.47;96597.13;4994512;28;20410;-75
2022/09/23 00:11:51;;;;;;;6.70;5.13;;;;;;;7.08;76.39;96612.09;4993992;28;20042;-76
2022/09/23 00:14:20;;;;;;;6.90;4.75;;;;;;;7.04;76.78;96602.94;4994379;28;20073;-76
2022/09/23 00:16:47;;;;;;;9.13;4.60;;;;;;;6.99;77.20;96597.59;4994295;28;20138;-75
2022/09/23 00:19:15;;;;;;;7.95;4.75;;;;;;;6.93;76.66;96598.75;4994168;28;20042;-76
2022/09/23 00:21:42;;;;;;;8.45;6.25;;;;;;;6.92;77.21;96589.03;4992708;28;20043;-75
2022/09/23 00:24:08;;;;;;;9.27;5.85;;;;;;;6.86;77.27;96592.88;4994321;28;20070;-75
2022/09/23 00:26:35;;;;;;;7.57;5.00;;;;;;;6.84;77.74;96590.47;4994449;28;20060;-76
2022/09/23 00:29:01;;;;;;;7.72;5.60;;;;;;;6.84;78.57;96585.06;5009093;28;20057;-75
2022/09/23 00:31:30;;;;;;;8.93;5.53;;;;;;;6.80;78.75;96590.22;5011471;28;20517;-75
2022/09/23 00:33:59;;;;;;;8.75;5.63;;;;;;;6.78;78.91;96586.19;5014680;28;20042;-76
2022/09/23 00:36:27;;;;;;;7.35;5.32;;;;;;;6.80;78.26;96586.72;5017807;28;20116;-77
2022/09/23 00:38:54;;;;;;;9.40;5.78;;;;;;;6.72;78.40;96592.75;5017184;28;20060;-75
2022/09/23 00:41:23;;;;;;;9.55;5.47;;;;;;;6.70;78.86;96584.94;5012037;28;20526;-75
2022/09/23 00:43:52;;;;;;;7.97;5.95;;;;;;;6.70;78.91;96581.41;4997800;28;20100;-75
2022/09/23 00:46:23;;;;;;;11.20;5.72;;;;;;;6.70;78.53;96584.13;4996333;28;20050;-76
2022/09/23 00:48:58;;;;;;;9.80;5.95;;;;;;;6.62;78.55;96576.63;4995803;28;20049;-75
2022/09/23 00:51:28;;;;;;;9.65;5.30;;;;;;;6.64;79.25;96567.13;4982367;28;20042;-76
2022/09/23 00:53:55;;;;;;;9.82;5.85;;;;;;;6.67;79.85;96573.88;5000864;28;20062;-76
2022/09/23 00:56:24;;;;;;;12.35;5.72;;;;;;;6.67;78.57;96573.88;5001553;28;20046;-75
2022/09/23 00:58:51;;;;;;;6.88;5.05;;;;;;;6.64;78.91;96575.25;5000436;28;20057;-75
2022/09/23 01:01:19;;;;;;;8.65;5.05;;;;;;;6.61;78.56;96570.41;5000471;28;20089;-75
2022/09/23 01:03:46;;;;;;;9.10;5.47;;;;;;;6.58;78.68;96567.47;5008352;28;20049;-75
2022/09/23 01:06:14;;;;;;;7.68;5.03;;;;;;;6.51;78.65;96565.91;5019453;28;20050;-75
2022/09/23 01:08:46;;;;;;;8.50;5.10;;;;;;;6.47;78.43;96558.66;5019794;28;20655;-75
2022/09/23 01:11:40;;;;;;;12.63;6.18;;;;;;;6.46;78.37;96563.25;5018481;28;20061;-75
2022/09/23 01:14:22;;;;;;;8.38;5.22;;;;;;;6.38;78.30;96561.19;4980777;28;20053;-74
2022/09/23 01:16:58;;;;;;;9.63;5.32;;;;;;;6.39;78.90;96551.97;4980246;28;20050;-74
2022/09/23 01:19:38;;;;;;;9.45;5.93;;;;;;;6.39;79.13;96560.09;4980339;28;20042;-77
2022/09/23 01:22:14;;;;;;;10.02;5.60;;;;;;;6.36;79.59;96557.94;4992413;28;20042;-76
2022/09/23 01:24:47;;;;;;;8.70;5.45;;;;;;;6.33;79.57;96553.13;4999964;28;20051;-76
2022/09/23 01:27:26;;;;;;;11.25;6.10;;;;;;;6.30;79.21;96550.97;5000712;28;20062;-76
2022/09/23 01:30:09;;;;;;;10.20;5.22;;;;;;;6.31;79.42;96547.16;5002424;28;20573;-77
2022/09/23 01:32:47;;;;;;;8.90;5.18;;;;;;;6.30;79.69;96552.88;5002466;28;20046;-77
2022/09/23 01:35:24;;;;;;;6.93;4.93;;;;;;;6.27;78.75;96546.16;5002026;28;20051;-77
2022/09/23 01:37:58;;;;;;;7.72;4.97;;;;;;;6.18;79.10;96534.34;5001479;28;20058;-75
2022/09/23 01:40:33;;;;;;;7.72;5.13;;;;;;;6.16;79.50;96539.22;5000943;28;20046;-76
2022/09/23 01:43:06;;;;;;;11.07;6.05;;;;;;;6.17;78.31;96535.44;5017179;28;20050;-74
2022/09/23 01:45:37;;;;;;;9.80;5.65;;;;;;;6.11;78.62;96537.38;5019793;28;20052;-75
2022/09/23 01:48:12;;;;;;;9.80;5.80;;;;;;;6.09;78.77;96530.63;5019409;28;20508;-76
2022/09/23 01:50:57;;;;;;;8.90;5.68;;;;;;;6.07;79.32;96538.22;5005760;28;20046;-76
2022/09/23 01:53:31;;;;;;;9.02;5.50;;;;;;;6.06;79.48;96531.22;4994002;28;20057;-75
2022/09/23 01:56:02;;;;;;;9.70;5.90;;;;;;;6.03;78.67;96531.78;4999653;28;20050;-75
2022/09/23 01:58:35;;;;;;;8.40;5.78;;;;;;;5.91;79.33;96532.13;5002968;28;20046;-75
2022/09/23 02:01:05;;;;;;;8.30;5.72;;;;;;;5.92;80.24;96534.56;4999168;28;20050;-76
2022/09/23 02:03:37;;;;;;;7.60;5.80;;;;;;;5.94;80.69;96536.97;4995423;28;20105;-75
2022/09/23 02:06:08;;;;;;;7.57;5.78;;;;;;;5.94;80.73;96532.38;4996157;28;20065;-74
2022/09/23 02:08:40;;;;;;;8.68;5.72;;;;;;;5.94;81.08;96529.66;4996076;28;20078;-75
2022/09/23 02:11:09;;;;;;;7.97;5.95;;;;;;;5.91;79.88;96524.84;4996826;28;20046;-74
2022/09/23 02:13:42;;;;;;;6.72;5.05;;;;;;;5.90;80.43;96534.03;4995807;28;20051;-75
2022/09/23 02:16:14;;;;;;;11.68;6.13;;;;;;;5.88;80.11;96525.38;4995817;28;20046;-75
2022/09/23 02:18:47;;;;;;;10.38;6.65;;;;;;;5.83;79.96;96530.81;4996155;28;20077;-75
2022/09/23 02:21:17;;;;;;;11.48;7.15;;;;;;;5.78;80.44;96530.06;4996976;28;20414;-75
2022/09/23 02:23:49;;;;;;;9.45;6.95;;;;;;;5.82;80.23;96531.13;4996041;28;20411;-75
2022/09/23 02:26:21;;;;;;;9.30;6.30;;;;;;;5.86;80.92;96538.38;4995951;28;20097;-76
2022/09/23 02:28:59;;;;;;;10.63;6.47;;;;;;;5.86;80.42;96532.97;4996650;28;20310;-75
2022/09/23 02:31:32;;;;;;;11.10;6.03;;;;;;;5.83;80.25;96528.13;4996586;28;20050;-75
2022/09/23 02:34:11;;;;;;;10.05;6.22;;;;;;;5.76;80.14;96525.75;4996651;28;20057;-75
2022/09/23 02:36:45;;;;;;;9.40;5.68;;;;;;;5.70;80.21;96535.00;4996106;28;20050;-76
2022/09/23 02:39:15;;;;;;;11.90;6.30;;;;;;;5.66;80.31;96523.13;4996297;28;20494;-75
2022/09/23 02:41:52;;;;;;;9.88;6.65;;;;;;;5.63;80.22;96522.88;5000314;28;20592;-76
2022/09/23 02:44:20;;;;;;;10.25;6.25;;;;;;;5.59;80.38;96527.25;4976861;28;20050;-75
2022/09/23 02:46:50;;;;;;;10.25;6.35;;;;;;;5.60;80.59;96534.25;4977383;28;20054;-75
2022/09/23 02:49:21;;;;;;;10.00;6.22;;;;;;;5.58;80.33;96528.31;4978089;28;20531;-75
2022/09/23 02:51:48;;;;;;;12.30;6.65;;;;;;;5.49;80.15;96531.63;5016218;28;20053;-75
2022/09/23 02:54:19;;;;;;;11.52;6.90;;;;;;;5.37;80.03;96536.56;4999157;28;20058;-75
2022/09/23 02:56:47;;;;;;;11.13;5.93;;;;;;;5.38;80.74;96532.78;4998878;28;20046;-75
2022/09/23 02:59:18;;;;;;;10.30;6.55;;;;;;;5.44;81.22;96526.25;4998666;28;20080;-75
2022/09/23 03:01:58;;;;;;;9.30;6.47;;;;;;;5.44;81.51;96531.66;4999545;28;20046;-74
2022/09/23 03:04:35;;;;;;;9.82;6.55;;;;;;;5.49;81.39;96530.81;5011700;28;20050;-75
2022/09/23 03:07:05;;;;;;;10.48;6.90;;;;;;;5.48;80.69;96521.91;5016881;28;20137;-75
2022/09/23 03:09:37;;;;;;;10.65;6.70;;;;;;;5.49;81.08;96523.53;5016059;28;20081;-75
2022/09/23 03:12:14;;;;;;;11.00;6.55;;;;;;;5.52;81.68;96521.34;5015643;28;20057;-75
2022/09/23 03:14:50;;;;;;;10.10;6.63;;;;;;;5.50;81.94;96519.75;5015754;28;20390;-77
2022/09/23 03:17:24;;;;;;;10.48;6.85;;;;;;;5.52;81.71;96524.84;5010819;28;20046;-76
2022/09/23 03:19:59;;;;;;;11.63;7.45;;;;;;;5.54;81.72;96517.28;4994833;28;20050;-77
2022/09/23 03:22:32;;;;;;;13.07;7.13;;;;;;;5.49;81.51;96518.13;4994536;28;20045;-75
2022/09/23 03:25:03;;;;;;;11.75;6.60;;;;;;;5.49;80.99;96520.84;4994976;28;20065;-75
2022/09/23 03:27:32;;;;;;;10.18;6.85;;;;;;;5.48;81.23;96521.91;4994288;28;20073;-75
2022/09/23 03:30:00;;;;;;;14.38;6.97;;;;;;;5.52;81.11;96518.63;4994400;28;20050;-75
2022/09/23 03:32:28;;;;;;;11.40;6.82;;;;;;;5.52;80.72;96522.16;5005910;28;20046;-76
2022/09/23 03:34:59;;;;;;;10.93;6.50;;;;;;;5.46;80.18;96515.97;5013966;28;20092;-76
2022/09/23 03:37:30;;;;;;;11.60;6.60;;;;;;;5.46;80.65;96515.16;5013477;28;20056;-76
2022/09/23 03:40:02;;;;;;;11.30;6.85;;;;;;;5.43;80.50;96519.25;5013266;28;20139;-75
2022/09/23 03:42:32;;;;;;;10.82;6.60;;;;;;;5.41;80.87;96518.72;5000344;28;20046;-76
2022/09/23 03:45:00;;;;;;;8.68;6.30;;;;;;;5.39;80.72;96523.59;4995438;28;20047;-75
2022/09/23 03:47:29;;;;;;;11.30;6.90;;;;;;;5.37;81.34;96522.25;5012848;28;20140;-76
2022/09/23 03:49:58;;;;;;;12.82;6.78;;;;;;;5.36;81.49;96526.03;5013022;28;20077;-75
2022/09/23 03:52:25;;;;;;;8.90;6.70;;;;;;;5.37;80.65;96525.75;5004581;28;20536;-75
2022/09/23 03:54:52;;;;;;;10.93;6.70;;;;;;;5.33;80.29;96519.31;5012599;28;20058;-75
2022/09/23 03:57:20;;;;;;;7.47;6.32;;;;;;;5.31;80.82;96509.88;5003940;28;20054;-75
2022/09/23 03:59:47;;;;;;;10.00;6.30;;;;;;;5.24;80.82;96504.78;4993443;28;20050;-75
2022/09/23 04:02:15;;;;;;;19.17;6.85;;;;;;;5.08;80.24;96512.19;5002078;28;20056;-76
2022/09/23 04:04:42;;;;;;;10.10;7.00;;;;;;;5.10;80.90;96510.00;5012616;28;20420;-75
2022/09/23 04:07:11;;;;;;;9.15;6.38;;;;;;;5.16;80.68;96508.06;5012954;28;20076;-76
2022/09/23 04:09:39;;;;;;;8.13;5.93;;;;;;;5.14;80.55;96504.84;5012218;28;20468;-76
2022/09/23 04:12:07;;;;;;;9.45;6.38;;;;;;;5.11;80.33;96500.81;5003721;28;20050;-75
2022/09/23 04:14:33;;;;;;;8.52;6.10;;;;;;;5.06;80.58;96503.53;4992864;28;20046;-75
2022/09/23 04:17:00;;;;;;;9.52;6.55;;;;;;;5.06;80.81;96497.34;4992821;28;20137;-76
2022/09/23 04:19:26;;;;;;;9.60;6.35;;;;;;;5.07;80.99;96493.56;4993881;28;20046;-76
2022/09/23 04:21:53;;;;;;;8.98;6.30;;;;;;;5.06;80.98;96491.94;5005032;28;20049;-75
2022/09/23 04:24:21;;;;;;;8.98;6.68;;;;;;;5.08;81.05;96497.88;4993950;28;20525;-75
2022/09/23 04:26:51;;;;;;;8.85;6.45;;;;;;;5.06;81.05;96489.25;4994503;28;20043;-77
2022/09/23 04:29:18;;;;;;;11.32;6.60;;;;;;;5.00;80.82;96493.06;4994111;28;20050;-75
2022/09/23 04:31:44;;;;;;;11.93;7.65;;;;;;;4.92;80.93;96489.88;4993907;28;20043;-75
2022/09/23 04:34:11;;;;;;;11.13;6.97;;;;;;;4.91;80.91;96495.56;4977854;28;20147;-75
2022/09/23 04:36:38;;;;;;;11.32;7.00;;;;;;;4.87;80.58;96489.91;4992591;28;20089;-75
2022/09/23 04:39:05;;;;;;;10.25;6.50;;;;;;;4.83;80.95;96494.22;4992359;28;20145;-77
2022/09/23 04:41:33;;;;;;;9.27;6.65;;;;;;;4.79;81.32;96495.88;5012109;28;20046;-76
2022/09/23 04:43:59;;;;;;;10.20;6.90;;;;;;;4.77;81.87;96489.16;5011981;28;20049;-75
2022/09/23 04:46:26;;;;;;;9.93;6.82;;;;;;;4.83;82.26;96496.94;5012032;28;20042;-75
2022/09/23 04:48:53;;;;;;;10.05;6.75;;;;;;;4.81;82.30;96496.41;5013513;28;20046;-75
2022/09/23 04:51:22;;;;;;;10.77;6.25;;;;;;;4.79;82.03;96495.88;5011511;28;20049;-75
2022/09/23 04:53:51;;;;;;;10.40;7.03;;;;;;;4.77;82.21;96498.03;4994518;28;20077;-75
2022/09/23 04:56:19;;;;;;;13.75;7.57;;;;;;;4.78;82.91;96496.94;4991862;28;20038;-78
2022/09/23 04:58:48;;;;;;;14.60;8.55;;;;;;;4.84;82.78;96495.84;4990147;28;20061;-75
2022/09/23 05:01:16;;;;;;;11.02;7.30;;;;;;;4.86;82.83;96501.78;4992041;28;20390;-74
2022/09/23 05:03:44;;;;;;;10.75;6.88;;;;;;;4.85;82.86;96497.44;4990745;28;20283;-75
2022/09/23 05:06:13;;;;;;;12.55;7.50;;;;;;;4.89;82.76;96500.41;4991189;28;20050;-73
2022/09/23 05:08:40;;;;;;;14.70;8.15;;;;;;;4.83;82.63;96499.63;5002561;28;20556;-75
2022/09/23 05:11:07;;;;;;;10.60;7.43;;;;;;;4.81;82.45;96503.69;5007364;28;20509;-76
2022/09/23 05:13:34;;;;;;;18.92;7.90;;;;;;;4.64;82.27;96502.13;4995121;28;20082;-76
2022/09/23 05:16:05;;;;;;;10.40;7.53;;;;;;;4.67;82.22;96498.88;5010334;28;20050;-75
2022/09/23 05:18:33;;;;;;;15.95;8.30;;;;;;;4.78;82.11;96504.25;5009853;28;20565;-75
2022/09/23 05:20:59;;;;;;;11.07;7.28;;;;;;;4.62;81.92;96507.00;5011336;28;20057;-75
2022/09/23 05:23:27;;;;;;;20.05;8.65;;;;;;;4.69;82.00;96509.41;4976491;28;20082;-77
2022/09/23 05:25:58;;;;;;;14.95;8.95;;;;;;;4.71;82.37;96512.63;4989873;28;20273;-77
2022/09/23 05:28:25;;;;;;;20.85;8.82;;;;;;;4.69;82.46;96509.41;4989464;28;20164;-76
2022/09/23 05:30:51;;;;;;;17.33;8.18;;;;;;;4.75;82.45;96510.19;4972339;28;20058;-75
2022/09/23 05:33:19;;;;;;;21.73;9.43;;;;;;;4.82;82.39;96510.69;4990151;28;20453;-77
2022/09/23 05:35:49;;;;;;;14.45;8.27;;;;;;;4.86;82.62;96509.88;4990584;28;20517;-76
2022/09/23 05:38:16;;;;;;;17.85;8.63;;;;;;;4.91;82.54;96512.56;4996545;28;20050;-76
2022/09/23 05:40:43;;;;;;;25.50;8.85;;;;;;;5.00;82.90;96514.66;4995833;28;20054;-76
2022/09/23 05:43:09;;;;;;;13.90;8.43;;;;;;;5.07;83.34;96510.56;5012019;28;20046;-76
2022/09/23 05:45:36;;;;;;;19.58;9.10;;;;;;;5.07;83.42;96512.47;5021847;28;20042;-77
2022/09/23 05:48:02;;;;;;;13.18;8.52;;;;;;;5.04;83.32;96515.72;5018703;28;20046;-74
2022/09/23 05:50:30;;;;;;;15.93;8.15;;;;;;;5.08;83.60;96511.38;5013367;28;20037;-75
2022/09/23 05:52:57;;;;;;;16.02;9.40;;;;;;;5.13;83.52;96514.06;5001983;28;20053;-75
2022/09/23 05:55:23;;;;;;;16.52;8.55;;;;;;;5.22;84.00;96512.38;5016888;28;20647;-74
2022/09/23 05:57:50;;;;;;;22.23;9.77;;;;;;;5.19;84.35;96510.22;5015692;28;20046;-74
2022/09/23 06:00:16;;;;;;;22.02;9.77;;;;;;;5.24;84.09;96504.78;5015212;28;20056;-75
2022/09/23 06:02:43;;;;;;;24.52;10.20;;;;;;;5.35;84.05;96509.03;4996805;28;20489;-75
2022/09/23 06:05:10;;;;;;;14.25;9.13;;;;;;;5.31;83.96;96507.19;4995903;28;20058;-76
2022/09/23 06:07:38;;;;;;;13.35;8.88;;;;;;;5.40;84.19;96505.50;4996033;28;20054;-75
2022/09/23 06:10:05;;;;;;;17.13;9.27;;;;;;;5.49;84.02;96507.31;5013926;28;20473;-77
2022/09/23 06:12:33;;;;;;;16.48;9.93;;;;;;;5.33;85.21;96511.22;4997570;28;20054;-74
2022/09/23 06:15:00;;;;;;;17.95;10.40;;;;;;;5.33;85.93;96500.41;4995466;28;20050;-74
2022/09/23 06:17:26;;;;;;;13.60;9.20;;;;;;;5.49;85.70;96501.13;4995443;28;20295;-74
2022/09/23 06:19:53;;;;;;;13.52;9.55;;;;;;;5.48;86.20;96508.41;4994837;28;20046;-75
2022/09/23 06:22:19;;;;;;;19.48;9.98;;;;;;;5.62;85.71;96502.34;4995946;28;20414;-75
2022/09/23 06:24:47;;;;;;;16.33;10.25;;;;;;;5.60;85.57;96508.06;4994799;28;20069;-74
2022/09/23 06:27:13;;;;;;;16.85;10.05;;;;;;;5.75;85.53;96504.44;4994493;28;20051;-75
2022/09/23 06:29:40;;;;;;;16.05;10.32;;;;;;;5.67;85.62;96508.53;4994619;28;20054;-74
2022/09/23 06:32:06;;;;;;;15.95;10.05;;;;;;;5.83;85.60;96506.50;4994825;28;20046;-74
2022/09/23 06:34:33;;;;;;;15.25;9.30;;;;;;;6.08;85.39;96504.69;4995641;28;20054;-74
2022/09/23 06:37:00;;;;;;;21.80;11.77;;;;;;;6.01;85.24;96503.13;4996173;28;20058;-76
2022/09/23 06:39:26;;;;;;;15.13;10.18;;;;;;;6.12;85.50;96503.84;5000990;28;20072;-78
2022/09/23 06:41:54;;;;;;;12.73;9.30;;;;;;;6.30;85.37;96505.00;5003192;28;20505;-76
2022/09/23 06:44:23;;;;;;;18.45;10.30;;;;;;;6.40;85.36;96493.28;5011574;28;20046;-79
2022/09/23 06:46:50;;;;;;;15.10;8.52;;;;;;;6.51;85.51;96500.97;5002920;28;20038;-77
2022/09/23 06:49:17;;;;;;;18.00;9.18;;;;;;;6.62;84.29;96501.66;4998221;28;20050;-74
2022/09/23 06:51:43;;;;;;;16.30;8.65;;;;;;;6.75;83.79;96502.88;5004546;28;20054;-79
2022/09/23 06:54:10;;;;;;;17.25;8.75;;;;;;;6.72;83.67;96506.16;5010250;28;20050;-80
2022/09/23 06:56:37;;;;;;;11.00;7.85;;;;;;;7.13;83.89;96502.91;5012518;28;20065;-80
2022/09/23 06:59:07;;;;;;;14.90;8.50;;;;;;;7.51;83.29;96509.13;5009118;28;20060;-81
2022/09/23 07:01:33;;;;;;;14.38;7.72;;;;;;;7.76;81.66;96505.22;4992646;28;20053;-77
2022/09/23 07:04:00;;;;;;;12.85;7.43;;;;;;;8.08;79.48;96504.41;5011118;28;20057;-80
2022/09/23 07:06:27;;;;;;;15.55;7.55;;;;;;;8.77;76.45;96499.06;5010426;28;20053;-80
2022/09/23 07:08:53;;;;;;;11.07;6.65;;;;;;;10.35;71.24;96509.03;5003420;28;20405;-84
2022/09/23 07:11:21;;;;;;;10.98;5.88;;;;;;;11.28;65.11;96502.63;5007556;28;20470;-82
2022/09/23 07:13:48;;;;;;;9.93;5.30;;;;;;;12.57;61.76;96498.97;5006074;28;20450;-83
2022/09/23 07:16:16;;;;;;;18.13;9.18;;;;;;;13.38;58.85;96506.16;5002610;28;20058;-83
2022/09/23 07:18:43;;;;;;;12.88;5.80;;;;;;;14.20;55.11;96503.69;4997199;28;20059;-78
2022/09/23 07:21:13;;;;;;;10.02;5.03;;;;;;;14.80;54.10;96499.50;5003746;28;20050;-82
2022/09/23 07:23:41;;;;;;;13.35;5.50;;;;;;;15.08;52.07;96504.31;5010002;28;20122;-80
2022/09/23 07:26:08;;;;;;;10.52;4.70;;;;;;;15.14;51.79;96497.47;5005334;28;20043;-80
2022/09/23 07:28:35;;;;;;;6.22;4.30;;;;;;;14.86;52.60;96503.63;5009547;28;20057;-84
2022/09/23 07:31:05;;;;;;;8.15;4.57;;;;;;;14.55;52.72;96503.34;5007918;28;20046;-83
2022/09/23 07:33:34;;;;;;;7.28;4.55;;;;;;;14.56;53.32;96510.44;5009768;28;20059;-86
2022/09/23 07:36:05;;;;;;;12.10;5.97;;;;;;;14.24;52.93;96512.81;5011220;28;20047;-86
2022/09/23 07:38:31;;;;;;;6.30;4.18;;;;;;;14.80;53.39;96504.97;5012793;28;20271;-87
2022/09/23 07:41:03;;;;;;;6.75;4.50;;;;;;;14.61;52.95;96505.53;4998629;28;20061;-86
2022/09/23 07:43:31;;;;;;;9.05;4.60;;;;;;;14.45;54.03;96510.03;5008929;28;20054;-81
2022/09/23 07:46:01;;;;;;;6.32;4.15;;;;;;;14.69;54.37;96503.84;5004806;28;20046;-81
2022/09/23 07:48:28;;;;;;;8.73;4.68;;;;;;;14.38;56.55;96512.53;5004256;28;20053;-84
2022/09/23 07:50:59;;;;;;;6.75;4.40;;;;;;;14.54;55.63;96497.06;5027296;23;20052;-87
2022/09/23 07:53:27;;;;;;;14.07;5.18;;;;;;;14.27;56.11;96509.41;5018927;28;20050;-84
2022/09/23 07:55:59;;;;;;;7.97;4.20;;;;;;;14.32;56.03;96511.16;5021075;28;20055;-87
2022/09/23 07:58:27;;;;;;;8.77;4.60;;;;;;;13.96;57.63;96509.09;5048730;28;20053;-85
2022/09/23 08:00:54;;;;;;;12.95;5.05;;;;;;;13.74;59.99;96508.31;5026754;28;20046;-83
2022/09/23 08:03:21;;;;;;;11.75;5.05;;;;;;;13.74;59.49;96512.97;5027008;28;20066;-85
2022/09/23 08:05:48;;;;;;;11.65;5.57;;;;;;;13.04;59.05;96509.84;5027677;28;20057;-83
2022/09/23 08:08:16;;;;;;;8.65;4.57;;;;;;;12.94;60.89;96507.47;5035645;28;20046;-85
2022/09/23 08:10:43;;;;;;;11.93;4.93;;;;;;;13.06;61.61;96507.59;5036993;28;20049;-79
2022/09/23 08:13:10;;;;;;;13.90;5.97;;;;;;;12.85;62.19;96514.94;5034694;28;20059;-78
2022/09/23 08:15:36;;;;;;;9.60;5.07;;;;;;;12.63;62.38;96511.31;5036903;28;20046;-84
2022/09/23 08:18:03;;;;;;;12.48;5.50;;;;;;;12.64;62.79;96515.66;4984124;28;20057;-78
2022/09/23 08:20:46;;;;;;;13.35;5.68;;;;;;;12.31;63.63;96522.81;5044313;28;20045;-80
2022/09/23 08:23:13;;;;;;;12.57;5.60;;;;;;;12.56;64.37;96512.97;5032214;28;20085;-79
2022/09/23 08:25:44;;;;;;;12.95;5.63;;;;;;;12.71;64.49;96505.03;5010172;28;20041;-83
2022/09/23 08:28:14;;;;;;;8.63;4.80;;;;;;;12.75;63.73;96505.97;5014280;28;20046;-86
2022/09/23 08:30:41;;;;;;;7.15;5.38;;;;;;;12.82;63.63;96510.94;5028906;28;20084;-86
2022/09/23 08:33:08;;;;;;;13.55;5.55;;;;;;;12.69;64.61;96512.75;5006540;28;20465;-79
2022/09/23 08:35:34;;;;;;;11.77;4.97;;;;;;;12.67;65.32;96509.53;5018547;28;20054;-79
2022/09/23 08:38:01;;;;;;;15.98;5.15;;;;;;;12.85;65.04;96509.47;4996235;28;20056;-78
2022/09/23 08:40:27;;;;;;;10.00;4.85;;;;;;;12.72;62.76;96506.63;5001965;28;20050;-83
2022/09/23 08:42:56;;;;;;;16.27;5.88;;;;;;;12.72;64.59;96506.63;5006390;28;20051;-80
2022/09/23 08:45:28;;;;;;;13.60;5.47;;;;;;;12.48;64.98;96507.22;5002441;28;20072;-83
2022/09/23 08:48:00;;;;;;;14.57;5.07;;;;;;;12.82;64.69;96501.94;5006614;28;20072;-80
2022/09/23 08:50:30;;;;;;;12.15;4.60;;;;;;;13.12;66.36;96503.53;5024376;28;20058;-80
2022/09/23 08:53:00;;;;;;;8.98;4.13;;;;;;;13.25;64.28;96507.97;5018153;28;20045;-81
2022/09/23 08:55:37;;;;;;;9.70;3.85;;;;;;;13.01;61.21;96505.06;5002622;28;20046;-81
2022/09/23 08:58:24;;;;;;;12.10;4.18;;;;;;;12.76;62.02;96499.38;5014267;28;20049;-76
2022/09/23 09:01:10;;;;;;;14.85;4.50;;;;;;;12.78;61.99;96497.09;5016706;28;20053;-75
2022/09/23 09:03:43;;;;;;;8.00;3.75;;;;;;;12.98;64.03;96497.50;5016529;28;20073;-85
2022/09/23 09:06:16;;;;;;;8.40;3.88;;;;;;;13.13;64.76;96494.19;5003716;28;20046;-86
2022/09/23 09:08:52;;;;;;;9.40;3.85;;;;;;;13.28;64.14;96490.94;5026211;28;20046;-80
2022/09/23 09:11:22;;;;;;;9.02;3.22;;;;;;;13.23;60.76;96498.53;5011880;28;20417;-81
2022/09/23 09:13:59;;;;;;;10.77;3.30;;;;;;;13.15;61.93;96486.47;5008697;28;20058;-83
2022/09/23 09:16:41;;;;;;;4.72;2.67;;;;;;;13.12;60.04;96492.59;5007909;28;20050;-82
2022/09/23 09:19:17;;;;;;;6.40;2.97;;;;;;;13.05;60.93;96492.34;4989157;28;20050;-82
2022/09/23 09:21:46;;;;;;;13.77;4.75;;;;;;;12.65;60.63;96492.69;5005394;28;20058;-77
2022/09/23 09:24:19;;;;;;;4.80;2.88;;;;;;;12.73;62.26;96491.03;4993187;28;20420;-80
2022/09/23 09:26:46;;;;;;;5.55;2.83;;;;;;;13.08;62.36;96480.72;5006483;28;20054;-84
2022/09/23 09:29:17;;;;;;;7.25;2.95;;;;;;;13.29;61.05;96476.13;5003598;28;20054;-81
2022/09/23 09:31:46;;;;;;;8.68;2.92;;;;;;;13.40;60.53;96475.72;4992197;28;20072;-85
2022/09/23 09:34:23;;;;;;;7.15;2.95;;;;;;;13.56;60.33;96469.31;5011210;28;20057;-81
2022/09/23 09:37:00;;;;;;;7.22;2.85;;;;;;;13.79;59.06;96471.72;5010519;28;20058;-81
2022/09/23 09:39:28;;;;;;;10.63;3.03;;;;;;;13.73;60.74;96462.09;5000982;28;20085;-81
2022/09/23 09:41:59;;;;;;;10.73;3.70;;;;;;;13.91;59.61;96468.22;5006637;28;20046;-82
2022/09/23 09:44:48;;;;;;;13.68;3.40;;;;;;;14.06;58.84;96473.06;5006748;28;20050;-85
2022/09/23 09:47:27;;;;;;;5.80;2.75;;;;;;;13.66;58.76;96459.91;5028986;28;20461;-78
2022/09/23 09:52:24;;;;;;;8.60;3.17;;;;;;;14.13;58.86;96454.13;5114518;22;20057;-81
2022/09/23 09:54:51;;;;;;;13.38;3.28;;;;;;;14.35;59.31;96456.50;5038563;28;20492;-81
2022/09/23 09:57:30;;;;;;;7.80;3.08;;;;;;;14.26;56.03;96447.56;5034136;28;20057;-81
2022/09/23 10:00:16;;;;;;;7.72;2.95;;;;;;;14.53;59.19;96445.34;5026932;28;20080;-80
2022/09/23 10:02:44;;;;;;;10.23;3.67;;;;;;;14.85;56.71;96443.66;5032060;28;20050;-80
2022/09/23 10:05:25;;;;;;;8.23;2.95;;;;;;;14.96;55.53;96441.25;5030196;28;20046;-81
2022/09/23 10:07:52;;;;;;;9.68;3.50;;;;;;;15.00;56.73;96433.94;5028065;28;20046;-82
2022/09/23 10:10:21;;;;;;;9.15;3.55;;;;;;;15.10;55.54;96436.22;5032797;28;20080;-80
2022/09/23 10:12:56;;;;;;;8.57;3.63;;;;;;;14.98;53.81;96439.78;5028605;28;20073;-81
2022/09/23 10:15:32;;;;;;;9.52;3.40;;;;;;;14.96;55.06;96446.72;5026417;28;20056;-81
2022/09/23 10:18:01;;;;;;;11.57;3.28;;;;;;;14.87;53.83;96444.91;5026649;28;20060;-80
2022/09/23 10:20:35;;;;;;;13.60;3.83;;;;;;;14.83;55.42;96441.25;5025946;28;20507;-81
2022/09/23 10:23:07;;;;;;;10.45;3.45;;;;;;;14.79;53.13;96431.31;5034394;28;20098;-83
2022/09/23 10:25:36;;;;;;;26.88;5.03;;;;;;;14.94;55.37;96427.88;5027610;28;20053;-83
2022/09/23 10:28:30;;;;;;;6.88;3.47;;;;;;;14.85;55.12;96433.47;5031505;28;20058;-83
2022/09/23 10:31:07;;;;;;;7.85;3.80;;;;;;;14.44;53.61;96426.25;5016915;28;20037;-81
2022/09/23 10:33:35;;;;;;;10.85;4.22;;;;;;;14.79;55.48;96426.63;5017824;28;20049;-82
2022/09/23 10:36:01;;;;;;;12.50;4.03;;;;;;;15.01;55.22;96427.31;5017858;28;20057;-80
2022/09/23 10:38:28;;;;;;;9.45;2.92;;;;;;;15.20;53.81;96430.25;5021957;28;20434;-82
2022/09/23 10:47:00;;;;;;;17.40;4.68;;;;;;;15.41;53.11;96419.13;5019945;28;20468;-81
2022/09/23 10:50:06;;;;;;;24.35;5.22;;;;;;;15.27;53.25;96419.47;5017220;28;20060;-81
2022/09/23 10:52:58;;;;;;;23.55;4.68;;;;;;;15.13;54.78;96416.31;5020539;28;20078;-82
2022/09/23 10:55:36;;;;;;;24.73;4.55;;;;;;;15.09;53.55;96412.69;5023972;28;20058;-81
2022/09/23 10:58:42;;;;;;;22.73;4.05;;;;;;;15.29;54.47;96410.91;5017161;28;20050;-81
2022/09/23 11:01:22;;;;;;;9.75;4.03;;;;;;;15.13;51.74;96413.56;5014236;28;20050;-81
2022/09/23 11:04:08;;;;;;;23.83;4.78;;;;;;;15.32;52.76;96402.78;5015070;28;20520;-81
2022/09/23 11:06:49;;;;;;;7.15;3.35;;;;;;;15.53;52.63;96408.09;5016166;28;20065;-82
2022/09/23 11:09:28;;;;;;;13.85;4.78;;;;;;;15.61;53.70;96411.84;5043735;23;20050;-79
2022/09/23 11:12:07;;;;;;;16.88;4.07;;;;;;;15.73;53.32;96402.78;5023036;22;20062;-80
2022/09/23 11:14:45;;;;;;;7.32;3.42;;;;;;;15.65;52.25;96396.28;5015960;28;20409;-78
2022/09/23 11:17:46;;;;;;;12.18;3.78;;;;;;;15.85;53.15;96395.28;5014221;28;20054;-77
2022/09/23 11:20:34;;;;;;;13.68;4.03;;;;;;;16.08;50.49;96389.22;5012855;28;20052;-79
2022/09/23 11:23:21;;;;;;;13.23;4.18;;;;;;;16.00;50.66;96390.97;5024555;22;20549;-79
2022/09/23 11:25:56;;;;;;;8.77;3.75;;;;;;;15.96;51.10;96389.28;4991211;28;20193;-78
2022/09/23 11:28:40;;;;;;;11.65;3.50;;;;;;;15.95;51.81;96382.19;5008904;28;20066;-79
2022/09/23 11:31:20;;;;;;;13.18;4.18;;;;;;;16.04;51.69;96385.59;5008089;28;20061;-79
2022/09/23 11:33:59;;;;;;;11.20;3.60;;;;;;;16.08;50.35;96376.28;5009993;28;20054;-79
2022/09/23 11:36:34;;;;;;;17.25;5.05;;;;;;;16.17;52.40;96378.84;5010135;28;20712;-77
2022/09/23 11:39:10;;;;;;;7.55;3.92;;;;;;;15.82;50.10;96376.78;4991354;28;20081;-76
2022/09/23 11:41:40;;;;;;;7.97;4.47;;;;;;;16.04;52.07;96369.91;4991784;28;20153;-76
2022/09/23 11:44:15;;;;;;;15.40;3.95;;;;;;;16.14;50.30;96369.38;4997207;28;20057;-77
2022/09/23 11:46:45;;;;;;;11.38;4.60;;;;;;;16.23;51.10;96366.44;5030242;28;20108;-78
2022/09/23 11:49:16;;;;;;;15.88;5.03;;;;;;;16.34;52.25;96362.03;4988054;28;20100;-75
2022/09/23 11:51:59;;;;;;;7.20;4.15;;;;;;;16.20;49.44;96361.69;4993035;28;20065;-77
2022/09/23 11:54:33;;;;;;;4.70;2.70;;;;;;;16.53;53.46;96357.75;4969600;28;20054;-79
2022/09/23 11:57:04;;;;;;;7.35;3.22;;;;;;;16.67;50.56;96352.59;4994201;28;20146;-79
2022/09/23 11:59:39;;;;;;;7.63;4.65;;;;;;;16.77;49.25;96351.28;4990643;28;20058;-77
2022/09/23 12:02:14;;;;;;;6.95;3.63;;;;;;;16.55;47.45;96347.19;4990055;28;20058;-76